Aeroporto :
LOGIN :

Iscrizione | Disclaimer

   EN    FR    IT 

 










Sommario :    VFR   VFR Marginale   IFR   IFR Intensivo   IFR Molto Intensivo
Visibilità : 
Base nubi : 
>= 8 km
>= 3000ft
5 / 8 km
1000 / 3000 ft
1500m / 5 km
500 / 1000 ft
800 / 1500m
200 / 500 ft
< 800m
< 200 ft
Simboli :   Temporali  Nebbia  Neve Forte  Precipitazioni Forti  Vento > 20 kt
SIGMETs :   Varie  Temporali  Ghiacco  Turbolenza  Onda orograficha  Ceneri Vulcaniche






- Altitudine del aeroporto : -13 ft
- Codice IATA : LEY


EHLE - Lelystad

ULTIMO METAR :
  • 121955Z AUTO 33009KT 300V360 9999 FEW030 SCT038 15/08 Q1024 NOSIG

METARs OBSOLETI :
  • 121925Z AUTO 34008KT 310V010 9999 BKN036 15/09 Q1024 NOSIG
  • 121855Z AUTO 33009KT 300V360 9999 SCT030 BKN037 16/09 Q1024 NOSIG
  • 121825Z AUTO 34010KT 310V020 9999 BKN031 BKN036 16/09 Q1024 NOSIG
  • 121755Z AUTO 33011KT 290V010 9999 BKN031 BKN039 16/09 Q1024 NOSIG
  • 121725Z AUTO 32010KT 290V350 9999 BKN031 OVC035 17/10 Q1023 NOSIG
  • 121655Z AUTO 29012KT 250V340 9999 BKN030 OVC035 17/09 Q1023 NOSIG

TAF TAF EHLE
Valido dal 12 a 18 ore il 14 a 00 ore UTC


121649Z 1218/1324 31009KT CAVOK



MetMap, La meteo Aeronautica in un colpo d'occhio ! - Copyright ORBIFLY Dicembre 2007 - Disclaimer

ORBIFLY MET'MAP TEAM :

Programmazione e sviluppo : Alexandra Zaïnal
Concezione : Baudouin d'Aumeries
Aiuto per la programmazione : Marc-Olivier Méhu
Supporto tecnico e logistico : Manuel Goepfert
Aiuto per la traduzione : Arnaldo La Scala

Contatto : metmap@orbifly.com




FONTI E CREDITI :

   NOAA